sensor_id;sensor_type;location;lat;lon;timestamp;P1;durP1;ratioP1;P2;durP2;ratioP2
72406;SDS011;60396;47.550;18.828;2023-12-20T00:00:40;30.20;;;14.32;;
72406;SDS011;60396;47.550;18.828;2023-12-20T00:03:08;32.53;;;14.38;;
72406;SDS011;60396;47.550;18.828;2023-12-20T00:05:36;28.80;;;14.20;;
72406;SDS011;60396;47.550;18.828;2023-12-20T00:08:08;30.33;;;14.38;;
72406;SDS011;60396;47.550;18.828;2023-12-20T00:10:36;31.17;;;14.10;;
72406;SDS011;60396;47.550;18.828;2023-12-20T00:13:04;31.70;;;14.73;;
72406;SDS011;60396;47.550;18.828;2023-12-20T00:15:32;30.55;;;13.55;;
72406;SDS011;60396;47.550;18.828;2023-12-20T00:17:59;27.73;;;15.07;;
72406;SDS011;60396;47.550;18.828;2023-12-20T00:20:28;32.63;;;13.50;;
72406;SDS011;60396;47.550;18.828;2023-12-20T00:22:57;26.47;;;12.87;;
72406;SDS011;60396;47.550;18.828;2023-12-20T00:25:25;25.27;;;13.13;;
72406;SDS011;60396;47.550;18.828;2023-12-20T00:27:52;23.95;;;12.30;;
72406;SDS011;60396;47.550;18.828;2023-12-20T00:30:20;29.17;;;13.43;;
72406;SDS011;60396;47.550;18.828;2023-12-20T00:32:48;24.92;;;12.43;;
72406;SDS011;60396;47.550;18.828;2023-12-20T00:35:16;26.23;;;13.13;;
72406;SDS011;60396;47.550;18.828;2023-12-20T00:37:44;28.65;;;14.73;;
72406;SDS011;60396;47.550;18.828;2023-12-20T00:40:12;26.73;;;14.45;;
72406;SDS011;60396;47.550;18.828;2023-12-20T00:42:40;28.40;;;14.38;;
72406;SDS011;60396;47.550;18.828;2023-12-20T00:45:09;27.83;;;13.73;;
72406;SDS011;60396;47.550;18.828;2023-12-20T00:47:37;28.50;;;13.97;;
72406;SDS011;60396;47.550;18.828;2023-12-20T00:50:05;28.62;;;13.13;;
72406;SDS011;60396;47.550;18.828;2023-12-20T00:52:36;30.85;;;14.73;;
72406;SDS011;60396;47.550;18.828;2023-12-20T00:55:04;28.45;;;14.73;;
72406;SDS011;60396;47.550;18.828;2023-12-20T00:57:32;30.67;;;14.30;;
72406;SDS011;60396;47.550;18.828;2023-12-20T01:00:00;27.70;;;14.90;;
72406;SDS011;60396;47.550;18.828;2023-12-20T01:02:28;27.83;;;14.70;;
72406;SDS011;60396;47.550;18.828;2023-12-20T01:04:56;29.25;;;15.23;;
72406;SDS011;60396;47.550;18.828;2023-12-20T01:07:24;30.75;;;15.55;;
72406;SDS011;60396;47.550;18.828;2023-12-20T01:09:52;33.47;;;15.50;;
72406;SDS011;60396;47.550;18.828;2023-12-20T01:12:20;27.83;;;15.63;;
72406;SDS011;60396;47.550;18.828;2023-12-20T01:14:48;30.30;;;15.05;;
72406;SDS011;60396;47.550;18.828;2023-12-20T01:17:15;28.17;;;15.32;;
72406;SDS011;60396;47.550;18.828;2023-12-20T01:19:43;28.70;;;15.00;;
72406;SDS011;60396;47.550;18.828;2023-12-20T01:22:11;32.42;;;15.95;;
72406;SDS011;60396;47.550;18.828;2023-12-20T01:24:39;38.20;;;16.57;;
72406;SDS011;60396;47.550;18.828;2023-12-20T01:27:06;32.97;;;15.20;;
72406;SDS011;60396;47.550;18.828;2023-12-20T01:29:34;38.17;;;17.17;;
72406;SDS011;60396;47.550;18.828;2023-12-20T01:32:02;37.50;;;17.17;;
72406;SDS011;60396;47.550;18.828;2023-12-20T01:34:30;35.58;;;17.05;;
72406;SDS011;60396;47.550;18.828;2023-12-20T01:36:58;34.97;;;16.43;;
72406;SDS011;60396;47.550;18.828;2023-12-20T01:39:27;42.28;;;18.08;;
72406;SDS011;60396;47.550;18.828;2023-12-20T01:41:56;42.80;;;18.87;;
72406;SDS011;60396;47.550;18.828;2023-12-20T01:44:24;50.88;;;19.37;;
72406;SDS011;60396;47.550;18.828;2023-12-20T01:46:51;42.75;;;19.85;;
72406;SDS011;60396;47.550;18.828;2023-12-20T01:49:19;46.30;;;20.20;;
72406;SDS011;60396;47.550;18.828;2023-12-20T01:51:48;42.35;;;19.55;;
72406;SDS011;60396;47.550;18.828;2023-12-20T01:54:16;47.90;;;20.83;;
72406;SDS011;60396;47.550;18.828;2023-12-20T01:56:44;49.22;;;21.92;;
72406;SDS011;60396;47.550;18.828;2023-12-20T01:59:13;47.00;;;21.02;;
72406;SDS011;60396;47.550;18.828;2023-12-20T02:01:41;50.10;;;23.10;;
72406;SDS011;60396;47.550;18.828;2023-12-20T02:04:09;50.28;;;22.90;;
72406;SDS011;60396;47.550;18.828;2023-12-20T02:06:37;51.25;;;24.17;;
72406;SDS011;60396;47.550;18.828;2023-12-20T02:09:07;50.85;;;23.08;;
72406;SDS011;60396;47.550;18.828;2023-12-20T02:11:35;55.60;;;24.12;;
72406;SDS011;60396;47.550;18.828;2023-12-20T02:14:03;58.93;;;24.40;;
72406;SDS011;60396;47.550;18.828;2023-12-20T02:16:31;54.05;;;23.40;;
72406;SDS011;60396;47.550;18.828;2023-12-20T02:18:59;59.00;;;25.27;;
72406;SDS011;60396;47.550;18.828;2023-12-20T02:21:33;58.13;;;25.73;;
72406;SDS011;60396;47.550;18.828;2023-12-20T02:24:04;56.33;;;23.75;;
72406;SDS011;60396;47.550;18.828;2023-12-20T02:26:32;56.80;;;25.07;;
72406;SDS011;60396;47.550;18.828;2023-12-20T02:29:01;57.10;;;24.98;;
72406;SDS011;60396;47.550;18.828;2023-12-20T02:31:28;55.08;;;25.73;;
72406;SDS011;60396;47.550;18.828;2023-12-20T02:33:57;59.60;;;25.88;;
72406;SDS011;60396;47.550;18.828;2023-12-20T02:36:25;55.60;;;25.83;;
72406;SDS011;60396;47.550;18.828;2023-12-20T02:38:52;57.10;;;25.63;;
72406;SDS011;60396;47.550;18.828;2023-12-20T02:41:20;57.90;;;27.13;;
72406;SDS011;60396;47.550;18.828;2023-12-20T02:43:48;61.13;;;25.67;;
72406;SDS011;60396;47.550;18.828;2023-12-20T02:46:15;51.65;;;25.48;;
72406;SDS011;60396;47.550;18.828;2023-12-20T02:48:45;62.75;;;26.00;;
72406;SDS011;60396;47.550;18.828;2023-12-20T02:51:15;61.40;;;26.73;;
72406;SDS011;60396;47.550;18.828;2023-12-20T02:53:46;61.28;;;26.90;;
72406;SDS011;60396;47.550;18.828;2023-12-20T02:56:14;78.68;;;26.45;;
72406;SDS011;60396;47.550;18.828;2023-12-20T02:58:41;81.50;;;25.23;;
72406;SDS011;60396;47.550;18.828;2023-12-20T03:01:09;62.17;;;23.08;;
72406;SDS011;60396;47.550;18.828;2023-12-20T03:03:37;68.10;;;22.70;;
72406;SDS011;60396;47.550;18.828;2023-12-20T03:06:05;49.35;;;23.45;;
72406;SDS011;60396;47.550;18.828;2023-12-20T03:08:33;53.85;;;23.15;;
72406;SDS011;60396;47.550;18.828;2023-12-20T03:11:01;54.85;;;22.92;;
72406;SDS011;60396;47.550;18.828;2023-12-20T03:13:28;54.08;;;23.40;;
72406;SDS011;60396;47.550;18.828;2023-12-20T03:15:56;52.27;;;23.13;;
72406;SDS011;60396;47.550;18.828;2023-12-20T03:18:24;55.72;;;24.37;;
72406;SDS011;60396;47.550;18.828;2023-12-20T03:20:52;59.03;;;24.08;;
72406;SDS011;60396;47.550;18.828;2023-12-20T03:23:19;60.38;;;24.73;;
72406;SDS011;60396;47.550;18.828;2023-12-20T03:25:47;96.68;;;24.67;;
72406;SDS011;60396;47.550;18.828;2023-12-20T03:28:15;77.60;;;23.17;;
72406;SDS011;60396;47.550;18.828;2023-12-20T03:30:43;118.78;;;23.00;;
72406;SDS011;60396;47.550;18.828;2023-12-20T03:33:11;88.07;;;22.42;;
72406;SDS011;60396;47.550;18.828;2023-12-20T03:35:39;72.80;;;22.13;;
72406;SDS011;60396;47.550;18.828;2023-12-20T03:38:07;86.07;;;21.60;;
72406;SDS011;60396;47.550;18.828;2023-12-20T03:40:35;61.90;;;21.70;;
72406;SDS011;60396;47.550;18.828;2023-12-20T03:43:03;66.25;;;22.33;;
72406;SDS011;60396;47.550;18.828;2023-12-20T03:45:31;61.83;;;21.90;;
72406;SDS011;60396;47.550;18.828;2023-12-20T03:47:59;68.05;;;22.37;;
72406;SDS011;60396;47.550;18.828;2023-12-20T03:50:26;118.95;;;21.08;;
72406;SDS011;60396;47.550;18.828;2023-12-20T03:52:54;102.23;;;22.13;;
72406;SDS011;60396;47.550;18.828;2023-12-20T03:58:18;90.45;;;20.60;;
72406;SDS011;60396;47.550;18.828;2023-12-20T04:00:46;78.68;;;20.58;;
72406;SDS011;60396;47.550;18.828;2023-12-20T04:03:14;52.33;;;22.25;;
72406;SDS011;60396;47.550;18.828;2023-12-20T04:05:42;52.80;;;21.03;;
72406;SDS011;60396;47.550;18.828;2023-12-20T04:08:10;48.75;;;20.48;;
72406;SDS011;60396;47.550;18.828;2023-12-20T04:10:39;59.15;;;23.15;;
72406;SDS011;60396;47.550;18.828;2023-12-20T04:13:07;61.70;;;21.42;;
72406;SDS011;60396;47.550;18.828;2023-12-20T04:15:35;50.33;;;22.00;;
72406;SDS011;60396;47.550;18.828;2023-12-20T04:18:03;48.47;;;22.00;;
72406;SDS011;60396;47.550;18.828;2023-12-20T04:20:31;61.47;;;21.10;;
72406;SDS011;60396;47.550;18.828;2023-12-20T04:22:59;57.80;;;22.10;;
72406;SDS011;60396;47.550;18.828;2023-12-20T04:25:27;58.92;;;19.73;;
72406;SDS011;60396;47.550;18.828;2023-12-20T04:27:55;53.75;;;21.45;;
72406;SDS011;60396;47.550;18.828;2023-12-20T04:30:23;59.30;;;20.37;;
72406;SDS011;60396;47.550;18.828;2023-12-20T04:32:51;53.95;;;20.30;;
72406;SDS011;60396;47.550;18.828;2023-12-20T04:35:19;52.22;;;20.02;;
72406;SDS011;60396;47.550;18.828;2023-12-20T04:37:48;57.17;;;20.33;;
72406;SDS011;60396;47.550;18.828;2023-12-20T04:40:17;53.50;;;20.02;;
72406;SDS011;60396;47.550;18.828;2023-12-20T04:42:45;60.20;;;19.33;;
72406;SDS011;60396;47.550;18.828;2023-12-20T04:45:13;53.78;;;20.83;;
72406;SDS011;60396;47.550;18.828;2023-12-20T04:47:43;47.03;;;18.83;;
72406;SDS011;60396;47.550;18.828;2023-12-20T04:50:11;56.33;;;20.25;;
72406;SDS011;60396;47.550;18.828;2023-12-20T04:52:41;53.20;;;21.23;;
72406;SDS011;60396;47.550;18.828;2023-12-20T04:55:09;59.90;;;20.20;;
72406;SDS011;60396;47.550;18.828;2023-12-20T04:57:37;51.33;;;19.70;;
72406;SDS011;60396;47.550;18.828;2023-12-20T05:00:05;55.17;;;19.67;;
72406;SDS011;60396;47.550;18.828;2023-12-20T05:02:36;49.40;;;20.23;;
72406;SDS011;60396;47.550;18.828;2023-12-20T05:05:04;50.17;;;21.92;;
72406;SDS011;60396;47.550;18.828;2023-12-20T05:07:32;60.30;;;22.03;;
72406;SDS011;60396;47.550;18.828;2023-12-20T05:10:01;46.72;;;18.17;;
72406;SDS011;60396;47.550;18.828;2023-12-20T05:12:29;40.42;;;18.62;;
72406;SDS011;60396;47.550;18.828;2023-12-20T05:14:57;46.13;;;18.73;;
72406;SDS011;60396;47.550;18.828;2023-12-20T05:17:26;48.75;;;20.95;;
72406;SDS011;60396;47.550;18.828;2023-12-20T05:19:54;53.60;;;19.63;;
72406;SDS011;60396;47.550;18.828;2023-12-20T05:22:21;52.97;;;19.87;;
72406;SDS011;60396;47.550;18.828;2023-12-20T05:24:50;47.70;;;20.55;;
72406;SDS011;60396;47.550;18.828;2023-12-20T05:27:18;48.90;;;20.83;;
72406;SDS011;60396;47.550;18.828;2023-12-20T05:29:45;51.03;;;19.27;;
72406;SDS011;60396;47.550;18.828;2023-12-20T05:32:14;50.70;;;19.63;;
72406;SDS011;60396;47.550;18.828;2023-12-20T05:34:42;38.67;;;18.35;;
72406;SDS011;60396;47.550;18.828;2023-12-20T05:37:09;90.30;;;19.50;;
72406;SDS011;60396;47.550;18.828;2023-12-20T05:39:38;112.03;;;18.48;;
72406;SDS011;60396;47.550;18.828;2023-12-20T05:42:06;92.75;;;19.23;;
72406;SDS011;60396;47.550;18.828;2023-12-20T05:44:34;62.27;;;19.07;;
72406;SDS011;60396;47.550;18.828;2023-12-20T05:47:03;55.60;;;19.60;;
72406;SDS011;60396;47.550;18.828;2023-12-20T05:49:31;38.53;;;18.40;;
72406;SDS011;60396;47.550;18.828;2023-12-20T05:51:59;40.28;;;19.10;;
72406;SDS011;60396;47.550;18.828;2023-12-20T05:54:27;37.20;;;18.25;;
72406;SDS011;60396;47.550;18.828;2023-12-20T05:56:55;40.67;;;19.43;;
72406;SDS011;60396;47.550;18.828;2023-12-20T05:59:22;40.50;;;17.77;;
72406;SDS011;60396;47.550;18.828;2023-12-20T06:01:51;53.42;;;17.75;;
72406;SDS011;60396;47.550;18.828;2023-12-20T06:04:20;77.40;;;19.33;;
72406;SDS011;60396;47.550;18.828;2023-12-20T06:06:50;51.28;;;18.52;;
72406;SDS011;60396;47.550;18.828;2023-12-20T06:09:18;37.77;;;17.03;;
72406;SDS011;60396;47.550;18.828;2023-12-20T06:11:47;34.20;;;17.50;;
72406;SDS011;60396;47.550;18.828;2023-12-20T06:14:15;55.40;;;18.17;;
72406;SDS011;60396;47.550;18.828;2023-12-20T06:16:43;44.63;;;18.62;;
72406;SDS011;60396;47.550;18.828;2023-12-20T06:19:11;46.03;;;17.20;;
72406;SDS011;60396;47.550;18.828;2023-12-20T06:21:39;32.70;;;15.63;;
72406;SDS011;60396;47.550;18.828;2023-12-20T06:24:11;46.92;;;16.95;;
72406;SDS011;60396;47.550;18.828;2023-12-20T06:26:39;41.55;;;17.15;;
72406;SDS011;60396;47.550;18.828;2023-12-20T06:29:08;57.92;;;17.52;;
72406;SDS011;60396;47.550;18.828;2023-12-20T06:31:36;41.55;;;17.25;;
72406;SDS011;60396;47.550;18.828;2023-12-20T06:34:04;42.33;;;17.67;;
72406;SDS011;60396;47.550;18.828;2023-12-20T06:36:32;36.67;;;16.45;;
72406;SDS011;60396;47.550;18.828;2023-12-20T06:39:00;37.15;;;17.12;;
72406;SDS011;60396;47.550;18.828;2023-12-20T06:41:28;37.80;;;16.58;;
72406;SDS011;60396;47.550;18.828;2023-12-20T06:43:56;41.72;;;16.33;;
72406;SDS011;60396;47.550;18.828;2023-12-20T06:46:25;43.90;;;16.87;;
72406;SDS011;60396;47.550;18.828;2023-12-20T06:48:54;53.45;;;16.20;;
72406;SDS011;60396;47.550;18.828;2023-12-20T06:51:22;42.10;;;16.35;;
72406;SDS011;60396;47.550;18.828;2023-12-20T06:53:53;35.53;;;13.98;;
72406;SDS011;60396;47.550;18.828;2023-12-20T06:56:21;51.33;;;14.93;;
72406;SDS011;60396;47.550;18.828;2023-12-20T06:58:49;41.87;;;14.23;;
72406;SDS011;60396;47.550;18.828;2023-12-20T07:01:17;41.60;;;14.23;;
72406;SDS011;60396;47.550;18.828;2023-12-20T07:03:46;39.05;;;15.18;;
72406;SDS011;60396;47.550;18.828;2023-12-20T07:06:13;70.18;;;13.85;;
72406;SDS011;60396;47.550;18.828;2023-12-20T07:08:44;72.50;;;14.57;;
72406;SDS011;60396;47.550;18.828;2023-12-20T07:11:12;54.00;;;13.37;;
72406;SDS011;60396;47.550;18.828;2023-12-20T07:13:40;63.08;;;14.27;;
72406;SDS011;60396;47.550;18.828;2023-12-20T07:16:09;55.12;;;13.35;;
72406;SDS011;60396;47.550;18.828;2023-12-20T07:18:37;35.03;;;12.60;;
72406;SDS011;60396;47.550;18.828;2023-12-20T07:21:05;31.23;;;12.82;;
72406;SDS011;60396;47.550;18.828;2023-12-20T07:23:35;37.00;;;13.10;;
72406;SDS011;60396;47.550;18.828;2023-12-20T07:26:03;34.25;;;14.25;;
72406;SDS011;60396;47.550;18.828;2023-12-20T07:28:31;38.85;;;14.20;;
72406;SDS011;60396;47.550;18.828;2023-12-20T07:31:00;46.33;;;13.20;;
72406;SDS011;60396;47.550;18.828;2023-12-20T07:33:29;47.35;;;14.05;;
72406;SDS011;60396;47.550;18.828;2023-12-20T07:36:06;57.93;;;13.80;;
72406;SDS011;60396;47.550;18.828;2023-12-20T07:38:35;41.85;;;13.57;;
72406;SDS011;60396;47.550;18.828;2023-12-20T07:41:03;36.65;;;14.05;;
72406;SDS011;60396;47.550;18.828;2023-12-20T07:43:31;50.00;;;14.45;;
72406;SDS011;60396;47.550;18.828;2023-12-20T07:46:03;32.55;;;14.32;;
72406;SDS011;60396;47.550;18.828;2023-12-20T07:48:35;30.20;;;13.87;;
72406;SDS011;60396;47.550;18.828;2023-12-20T07:51:04;42.75;;;14.30;;
72406;SDS011;60396;47.550;18.828;2023-12-20T07:53:35;38.75;;;14.05;;
72406;SDS011;60396;47.550;18.828;2023-12-20T07:56:12;37.67;;;13.75;;
72406;SDS011;60396;47.550;18.828;2023-12-20T07:58:42;38.22;;;13.88;;
72406;SDS011;60396;47.550;18.828;2023-12-20T08:01:19;38.03;;;14.87;;
72406;SDS011;60396;47.550;18.828;2023-12-20T08:03:49;34.78;;;14.30;;
72406;SDS011;60396;47.550;18.828;2023-12-20T08:06:18;58.67;;;15.30;;
72406;SDS011;60396;47.550;18.828;2023-12-20T08:08:46;45.90;;;15.20;;
72406;SDS011;60396;47.550;18.828;2023-12-20T08:11:25;47.08;;;16.55;;
72406;SDS011;60396;47.550;18.828;2023-12-20T08:13:54;64.23;;;17.60;;
72406;SDS011;60396;47.550;18.828;2023-12-20T08:16:22;46.15;;;18.75;;
72406;SDS011;60396;47.550;18.828;2023-12-20T08:18:52;41.97;;;15.90;;
72406;SDS011;60396;47.550;18.828;2023-12-20T08:21:21;41.65;;;16.45;;
72406;SDS011;60396;47.550;18.828;2023-12-20T08:23:50;42.65;;;13.95;;
72406;SDS011;60396;47.550;18.828;2023-12-20T08:26:19;32.17;;;14.67;;
72406;SDS011;60396;47.550;18.828;2023-12-20T08:28:48;40.42;;;16.27;;
72406;SDS011;60396;47.550;18.828;2023-12-20T08:31:17;53.80;;;14.87;;
72406;SDS011;60396;47.550;18.828;2023-12-20T08:33:46;34.45;;;13.90;;
72406;SDS011;60396;47.550;18.828;2023-12-20T08:36:15;33.58;;;13.75;;
72406;SDS011;60396;47.550;18.828;2023-12-20T08:38:45;35.93;;;14.50;;
72406;SDS011;60396;47.550;18.828;2023-12-20T08:41:13;36.97;;;14.95;;
72406;SDS011;60396;47.550;18.828;2023-12-20T08:43:41;47.80;;;15.35;;
72406;SDS011;60396;47.550;18.828;2023-12-20T08:46:09;45.30;;;16.12;;
72406;SDS011;60396;47.550;18.828;2023-12-20T08:48:37;41.88;;;18.25;;
72406;SDS011;60396;47.550;18.828;2023-12-20T08:51:06;38.30;;;17.67;;
72406;SDS011;60396;47.550;18.828;2023-12-20T08:53:36;56.88;;;17.70;;
72406;SDS011;60396;47.550;18.828;2023-12-20T08:56:04;55.00;;;18.05;;
72406;SDS011;60396;47.550;18.828;2023-12-20T08:58:33;49.55;;;19.45;;
72406;SDS011;60396;47.550;18.828;2023-12-20T09:01:11;38.28;;;17.20;;
72406;SDS011;60396;47.550;18.828;2023-12-20T09:03:39;39.73;;;17.73;;
72406;SDS011;60396;47.550;18.828;2023-12-20T09:06:11;42.58;;;17.98;;
72406;SDS011;60396;47.550;18.828;2023-12-20T09:08:57;37.08;;;16.67;;
72406;SDS011;60396;47.550;18.828;2023-12-20T09:11:39;48.35;;;17.85;;
72406;SDS011;60396;47.550;18.828;2023-12-20T09:14:12;38.90;;;16.27;;
72406;SDS011;60396;47.550;18.828;2023-12-20T09:16:43;33.23;;;15.17;;
72406;SDS011;60396;47.550;18.828;2023-12-20T09:19:11;34.83;;;15.00;;
72406;SDS011;60396;47.550;18.828;2023-12-20T09:21:38;39.25;;;14.15;;
72406;SDS011;60396;47.550;18.828;2023-12-20T09:24:07;30.60;;;13.65;;
72406;SDS011;60396;47.550;18.828;2023-12-20T09:26:36;33.38;;;14.23;;
72406;SDS011;60396;47.550;18.828;2023-12-20T09:29:04;30.10;;;13.80;;
72406;SDS011;60396;47.550;18.828;2023-12-20T09:31:32;35.50;;;15.93;;
72406;SDS011;60396;47.550;18.828;2023-12-20T09:34:00;39.88;;;15.80;;
72406;SDS011;60396;47.550;18.828;2023-12-20T09:36:28;32.42;;;15.77;;
72406;SDS011;60396;47.550;18.828;2023-12-20T09:38:59;35.55;;;14.95;;
72406;SDS011;60396;47.550;18.828;2023-12-20T09:41:28;30.97;;;15.13;;
72406;SDS011;60396;47.550;18.828;2023-12-20T09:44:00;36.95;;;16.05;;
72406;SDS011;60396;47.550;18.828;2023-12-20T09:46:31;34.67;;;16.33;;
72406;SDS011;60396;47.550;18.828;2023-12-20T09:49:00;32.38;;;14.48;;
72406;SDS011;60396;47.550;18.828;2023-12-20T09:51:29;36.60;;;16.90;;
72406;SDS011;60396;47.550;18.828;2023-12-20T09:53:57;34.83;;;15.83;;
72406;SDS011;60396;47.550;18.828;2023-12-20T09:56:26;33.38;;;15.80;;
72406;SDS011;60396;47.550;18.828;2023-12-20T09:58:54;37.72;;;16.45;;
72406;SDS011;60396;47.550;18.828;2023-12-20T10:01:23;36.75;;;16.90;;
72406;SDS011;60396;47.550;18.828;2023-12-20T10:03:52;39.22;;;17.55;;
72406;SDS011;60396;47.550;18.828;2023-12-20T10:06:22;36.50;;;16.17;;
72406;SDS011;60396;47.550;18.828;2023-12-20T10:08:50;34.72;;;17.08;;
72406;SDS011;60396;47.550;18.828;2023-12-20T10:11:18;36.75;;;16.95;;
72406;SDS011;60396;47.550;18.828;2023-12-20T10:13:47;42.67;;;18.37;;
72406;SDS011;60396;47.550;18.828;2023-12-20T10:16:15;33.83;;;16.65;;
72406;SDS011;60396;47.550;18.828;2023-12-20T10:18:44;38.77;;;18.27;;
72406;SDS011;60396;47.550;18.828;2023-12-20T10:21:12;37.70;;;18.27;;
72406;SDS011;60396;47.550;18.828;2023-12-20T10:23:40;36.85;;;18.30;;
72406;SDS011;60396;47.550;18.828;2023-12-20T10:26:09;33.88;;;16.70;;
72406;SDS011;60396;47.550;18.828;2023-12-20T10:28:37;38.33;;;18.67;;
72406;SDS011;60396;47.550;18.828;2023-12-20T10:31:05;37.43;;;18.03;;
72406;SDS011;60396;47.550;18.828;2023-12-20T10:33:34;32.63;;;17.08;;
72406;SDS011;60396;47.550;18.828;2023-12-20T10:36:02;29.25;;;15.23;;
72406;SDS011;60396;47.550;18.828;2023-12-20T10:38:31;37.58;;;18.40;;
72406;SDS011;60396;47.550;18.828;2023-12-20T10:41:00;31.75;;;16.12;;
72406;SDS011;60396;47.550;18.828;2023-12-20T10:43:29;34.70;;;17.10;;
72406;SDS011;60396;47.550;18.828;2023-12-20T10:45:58;29.65;;;15.05;;
72406;SDS011;60396;47.550;18.828;2023-12-20T10:48:26;33.85;;;15.10;;
72406;SDS011;60396;47.550;18.828;2023-12-20T10:50:58;28.30;;;14.32;;
72406;SDS011;60396;47.550;18.828;2023-12-20T10:53:27;25.48;;;12.48;;
72406;SDS011;60396;47.550;18.828;2023-12-20T10:55:55;20.57;;;10.20;;
72406;SDS011;60396;47.550;18.828;2023-12-20T10:58:27;18.12;;;8.45;;
72406;SDS011;60396;47.550;18.828;2023-12-20T11:00:59;18.65;;;9.27;;
72406;SDS011;60396;47.550;18.828;2023-12-20T11:03:32;17.58;;;8.70;;
72406;SDS011;60396;47.550;18.828;2023-12-20T11:08:51;18.10;;;8.77;;
72406;SDS011;60396;47.550;18.828;2023-12-20T11:12:02;16.23;;;7.72;;
72406;SDS011;60396;47.550;18.828;2023-12-20T11:14:41;15.43;;;7.43;;
72406;SDS011;60396;47.550;18.828;2023-12-20T11:17:13;16.52;;;8.23;;
72406;SDS011;60396;47.550;18.828;2023-12-20T11:22:21;14.60;;;7.47;;
72406;SDS011;60396;47.550;18.828;2023-12-20T11:24:52;16.48;;;8.23;;
72406;SDS011;60396;47.550;18.828;2023-12-20T11:27:20;14.55;;;6.82;;
72406;SDS011;60396;47.550;18.828;2023-12-20T11:29:51;15.90;;;7.80;;
72406;SDS011;60396;47.550;18.828;2023-12-20T11:34:51;16.27;;;8.23;;
72406;SDS011;60396;47.550;18.828;2023-12-20T11:37:21;17.05;;;8.30;;
72406;SDS011;60396;47.550;18.828;2023-12-20T11:39:55;17.08;;;8.18;;
72406;SDS011;60396;47.550;18.828;2023-12-20T11:42:24;15.30;;;8.35;;
72406;SDS011;60396;47.550;18.828;2023-12-20T11:44:52;16.48;;;7.70;;
72406;SDS011;60396;47.550;18.828;2023-12-20T11:47:20;18.33;;;8.47;;
72406;SDS011;60396;47.550;18.828;2023-12-20T11:49:49;16.30;;;8.30;;
72406;SDS011;60396;47.550;18.828;2023-12-20T11:52:18;17.90;;;8.98;;
72406;SDS011;60396;47.550;18.828;2023-12-20T11:54:46;16.55;;;8.73;;
72406;SDS011;60396;47.550;18.828;2023-12-20T11:57:15;16.58;;;7.55;;
72406;SDS011;60396;47.550;18.828;2023-12-20T11:59:43;14.67;;;8.17;;
72406;SDS011;60396;47.550;18.828;2023-12-20T12:02:11;14.38;;;7.68;;
72406;SDS011;60396;47.550;18.828;2023-12-20T12:04:42;15.27;;;7.60;;
72406;SDS011;60396;47.550;18.828;2023-12-20T12:07:10;17.45;;;8.48;;
72406;SDS011;60396;47.550;18.828;2023-12-20T12:09:38;17.65;;;8.70;;
72406;SDS011;60396;47.550;18.828;2023-12-20T12:12:06;15.30;;;7.93;;
72406;SDS011;60396;47.550;18.828;2023-12-20T12:14:38;14.77;;;7.60;;
72406;SDS011;60396;47.550;18.828;2023-12-20T12:17:11;16.02;;;8.27;;
72406;SDS011;60396;47.550;18.828;2023-12-20T12:19:40;16.92;;;7.95;;
72406;SDS011;60396;47.550;18.828;2023-12-20T12:22:10;17.35;;;8.70;;
72406;SDS011;60396;47.550;18.828;2023-12-20T12:24:43;18.20;;;8.73;;
72406;SDS011;60396;47.550;18.828;2023-12-20T12:27:12;18.45;;;8.13;;
72406;SDS011;60396;47.550;18.828;2023-12-20T12:29:59;14.73;;;7.32;;
72406;SDS011;60396;47.550;18.828;2023-12-20T12:32:31;18.45;;;8.90;;
72406;SDS011;60396;47.550;18.828;2023-12-20T12:35:00;13.98;;;7.45;;
72406;SDS011;60396;47.550;18.828;2023-12-20T12:37:28;18.23;;;8.07;;
72406;SDS011;60396;47.550;18.828;2023-12-20T12:39:56;17.45;;;7.90;;
72406;SDS011;60396;47.550;18.828;2023-12-20T12:42:24;16.83;;;8.07;;
72406;SDS011;60396;47.550;18.828;2023-12-20T12:44:56;19.60;;;9.05;;
72406;SDS011;60396;47.550;18.828;2023-12-20T12:47:24;17.80;;;9.23;;
72406;SDS011;60396;47.550;18.828;2023-12-20T12:49:52;18.87;;;8.67;;
72406;SDS011;60396;47.550;18.828;2023-12-20T12:52:20;17.23;;;8.55;;
72406;SDS011;60396;47.550;18.828;2023-12-20T12:54:49;18.40;;;8.70;;
72406;SDS011;60396;47.550;18.828;2023-12-20T12:57:16;20.25;;;7.93;;
72406;SDS011;60396;47.550;18.828;2023-12-20T12:59:45;17.58;;;8.15;;
72406;SDS011;60396;47.550;18.828;2023-12-20T13:02:14;19.27;;;8.93;;
72406;SDS011;60396;47.550;18.828;2023-12-20T13:04:42;17.87;;;8.57;;
72406;SDS011;60396;47.550;18.828;2023-12-20T13:07:10;16.77;;;8.65;;
72406;SDS011;60396;47.550;18.828;2023-12-20T13:09:39;15.65;;;7.72;;
72406;SDS011;60396;47.550;18.828;2023-12-20T13:12:07;18.58;;;9.10;;
72406;SDS011;60396;47.550;18.828;2023-12-20T13:14:35;17.43;;;8.10;;
72406;SDS011;60396;47.550;18.828;2023-12-20T13:17:06;16.95;;;8.50;;
72406;SDS011;60396;47.550;18.828;2023-12-20T13:19:34;16.87;;;8.00;;
72406;SDS011;60396;47.550;18.828;2023-12-20T13:22:02;18.77;;;9.13;;
72406;SDS011;60396;47.550;18.828;2023-12-20T13:24:30;20.55;;;8.88;;
72406;SDS011;60396;47.550;18.828;2023-12-20T13:26:59;19.07;;;9.37;;
72406;SDS011;60396;47.550;18.828;2023-12-20T13:29:27;21.08;;;9.48;;
72406;SDS011;60396;47.550;18.828;2023-12-20T13:31:55;18.00;;;8.50;;
72406;SDS011;60396;47.550;18.828;2023-12-20T13:34:24;15.82;;;8.20;;
72406;SDS011;60396;47.550;18.828;2023-12-20T13:36:52;18.40;;;9.27;;
72406;SDS011;60396;47.550;18.828;2023-12-20T13:39:20;19.33;;;9.23;;
72406;SDS011;60396;47.550;18.828;2023-12-20T13:41:48;20.40;;;9.82;;
72406;SDS011;60396;47.550;18.828;2023-12-20T13:44:16;18.73;;;9.48;;
72406;SDS011;60396;47.550;18.828;2023-12-20T13:46:44;21.15;;;10.35;;
72406;SDS011;60396;47.550;18.828;2023-12-20T13:49:13;26.40;;;9.38;;
72406;SDS011;60396;47.550;18.828;2023-12-20T13:51:41;20.67;;;9.80;;
72406;SDS011;60396;47.550;18.828;2023-12-20T13:54:09;20.30;;;9.82;;
72406;SDS011;60396;47.550;18.828;2023-12-20T13:56:38;22.65;;;10.45;;
72406;SDS011;60396;47.550;18.828;2023-12-20T13:59:23;23.52;;;10.23;;
72406;SDS011;60396;47.550;18.828;2023-12-20T14:01:51;24.27;;;11.02;;
72406;SDS011;60396;47.550;18.828;2023-12-20T14:04:19;24.33;;;11.60;;
72406;SDS011;60396;47.550;18.828;2023-12-20T14:07:09;24.58;;;11.50;;
72406;SDS011;60396;47.550;18.828;2023-12-20T14:09:40;25.60;;;11.80;;
72406;SDS011;60396;47.550;18.828;2023-12-20T14:12:14;26.37;;;11.40;;
72406;SDS011;60396;47.550;18.828;2023-12-20T14:14:42;21.87;;;10.82;;
72406;SDS011;60396;47.550;18.828;2023-12-20T14:17:12;23.27;;;11.03;;
72406;SDS011;60396;47.550;18.828;2023-12-20T14:19:40;21.77;;;11.32;;
72406;SDS011;60396;47.550;18.828;2023-12-20T14:22:08;24.80;;;11.43;;
72406;SDS011;60396;47.550;18.828;2023-12-20T14:24:35;21.65;;;10.80;;
72406;SDS011;60396;47.550;18.828;2023-12-20T14:27:03;21.87;;;10.68;;
72406;SDS011;60396;47.550;18.828;2023-12-20T14:29:32;19.93;;;9.17;;
72406;SDS011;60396;47.550;18.828;2023-12-20T14:32:00;22.27;;;10.18;;